Time;durP1;ratioP1;P1;durP2;ratioP2;P2;SDS_P1;SDS_P2;PMS_P1;PMS_P2;Temp;Humidity;BMP_temperature;BMP_pressure;BME280_temperature;BME280_humidity;BME280_pressure;Samples;Min_cycle;Max_cycle;Signal;HPM_P1;HPM_P2
2022/01/26 00:00:06;;;;;;;85.65;42.33;;;0.70;99.90;;;;;;5094238;28;20485;-75
2022/01/26 00:08:09;;;;;;;83.38;43.00;;;0.60;99.90;;;;;;5093516;28;20032;-75
2022/01/26 00:10:35;;;;;;;78.03;40.53;;;0.50;99.90;;;;;;5074705;28;20044;-75
2022/01/26 00:13:01;;;;;;;91.55;43.75;;;0.60;99.90;;;;;;5093614;28;20028;-75
2022/01/26 00:15:30;;;;;;;91.90;42.33;;;0.60;99.90;;;;;;5093554;28;20034;-75
2022/01/26 00:17:57;;;;;;;72.72;41.17;;;0.60;99.90;;;;;;5093161;28;20166;-75
2022/01/26 00:20:29;;;;;;;77.88;43.80;;;0.60;99.90;;;;;;5075409;28;20035;-75
2022/01/26 00:23:04;;;;;;;83.90;42.90;;;0.70;99.90;;;;;;5092542;28;20043;-75
2022/01/26 00:25:42;;;;;;;89.13;42.22;;;0.70;99.90;;;;;;5093262;28;20370;-75
2022/01/26 00:28:31;;;;;;;95.10;43.10;;;0.70;99.90;;;;;;5093653;28;20036;-75
2022/01/26 00:38:52;;;;;;;89.13;43.70;;;0.80;99.90;;;;;;5092528;28;20028;-75
2022/01/26 00:41:34;;;;;;;90.60;43.20;;;0.70;99.90;;;;;;5093092;28;20146;-75
2022/01/26 00:44:01;;;;;;;84.85;44.92;;;0.70;99.90;;;;;;5093056;28;20369;-75
2022/01/26 00:46:27;;;;;;;95.03;51.92;;;0.70;99.90;;;;;;5093490;28;20040;-75
2022/01/26 00:48:53;;;;;;;85.03;48.08;;;0.70;99.90;;;;;;5092483;28;20040;-75
2022/01/26 00:51:21;;;;;;;99.68;47.17;;;0.70;99.90;;;;;;5074622;28;20397;-75
2022/01/26 00:54:00;;;;;;;89.63;42.80;;;0.80;99.90;;;;;;5092280;28;20107;-75
2022/01/26 00:56:26;;;;;;;74.72;38.45;;;0.60;99.90;;;;;;5092928;28;20055;-75
2022/01/26 00:58:53;;;;;;;71.28;38.55;;;0.60;99.90;;;;;;5090172;28;20043;-75
2022/01/26 01:01:19;;;;;;;77.60;36.47;;;0.60;99.90;;;;;;5092671;28;20032;-75
2022/01/26 01:03:47;;;;;;;63.10;34.97;;;0.50;99.90;;;;;;5091615;28;20036;-75
2022/01/26 01:06:29;;;;;;;84.45;38.35;;;0.40;99.90;;;;;;5092715;28;20036;-75
2022/01/26 01:08:57;;;;;;;70.88;35.78;;;0.40;99.90;;;;;;5091977;28;20055;-75
2022/01/26 01:11:25;;;;;;;76.28;34.22;;;0.40;99.90;;;;;;5092927;28;20036;-75
2022/01/26 01:13:51;;;;;;;62.40;34.92;;;0.40;99.90;;;;;;5092161;28;20043;-75
2022/01/26 01:16:21;;;;;;;81.80;34.92;;;0.40;99.90;;;;;;5092885;28;20036;-75
2022/01/26 01:19:08;;;;;;;91.57;38.40;;;0.40;99.90;;;;;;5073432;28;20036;-75
2022/01/26 01:29:31;;;;;;;80.00;37.00;;;0.50;99.90;;;;;;5092262;28;20032;-75
2022/01/26 01:32:01;;;;;;;70.00;36.90;;;0.40;99.90;;;;;;5091391;28;20032;-75
2022/01/26 01:34:38;;;;;;;73.38;35.53;;;0.40;99.90;;;;;;5057240;28;20044;-75
2022/01/26 01:37:08;;;;;;;73.80;37.15;;;0.40;99.90;;;;;;5091899;28;20131;-75
2022/01/26 01:39:36;;;;;;;69.78;35.15;;;0.30;99.90;;;;;;5092482;28;20032;-75
2022/01/26 01:42:05;;;;;;;74.30;42.72;;;0.30;99.90;;;;;;5073508;28;20039;-75
2022/01/26 01:44:31;;;;;;;60.13;33.22;;;0.30;99.90;;;;;;5073407;28;20036;-75
2022/01/26 01:46:57;;;;;;;64.30;34.05;;;0.30;99.90;;;;;;5091461;28;20791;-75
2022/01/26 01:49:24;;;;;;;73.40;36.83;;;0.30;99.90;;;;;;5091808;28;20408;-76
2022/01/26 01:51:56;;;;;;;66.07;36.05;;;0.30;99.90;;;;;;5072610;28;20489;-76
2022/01/26 01:54:23;;;;;;;62.33;35.17;;;0.30;99.90;;;;;;5092265;28;20398;-76
2022/01/26 01:56:54;;;;;;;77.03;36.78;;;0.40;99.90;;;;;;5091001;28;20051;-76
2022/01/26 01:59:23;;;;;;;;;;;0.50;99.90;;;;;;5074579;28;20047;-75
2022/01/26 02:01:50;;;;;;;84.30;41.70;;;0.50;99.90;;;;;;5073643;28;19908;-75
2022/01/26 02:04:16;;;;;;;65.00;40.97;;;0.40;99.90;;;;;;5075608;28;20040;-75
2022/01/26 02:06:43;;;;;;;74.13;39.33;;;0.50;99.90;;;;;;5091772;28;20488;-79
2022/01/26 02:09:11;;;;;;;70.22;37.28;;;0.50;99.90;;;;;;5091722;28;20046;-77
2022/01/26 02:11:45;;;;;;;66.00;38.35;;;0.60;99.90;;;;;;5091905;28;20032;-76
2022/01/26 02:14:18;;;;;;;62.83;35.78;;;0.50;99.90;;;;;;5073913;28;20028;-76
2022/01/26 02:57:27;;;;;;;70.20;39.25;;;0.60;99.90;;;;;;5094238;28;20481;-76
2022/01/26 03:00:16;;;;;;;70.35;35.97;;;0.60;99.90;;;;;;5094060;28;20043;-76
2022/01/26 03:05:17;;;;;;;57.80;34.83;;;0.60;99.90;;;;;;5095145;28;20035;-76
2022/01/26 03:07:51;;;;;;;63.17;35.58;;;0.60;99.90;;;;;;5094404;28;20089;-79
2022/01/26 03:10:37;;;;;;;64.50;35.28;;;0.60;99.90;;;;;;5094712;28;20040;-76
2022/01/26 03:13:08;;;;;;;69.65;35.13;;;0.50;99.90;;;;;;5094019;28;20078;-76
2022/01/26 03:15:43;;;;;;;75.72;38.92;;;0.50;99.90;;;;;;5094692;28;20391;-76
2022/01/26 03:21:05;;;;;;;72.32;37.33;;;0.40;99.90;;;;;;5062501;28;20044;-76
2022/01/26 03:34:19;;;;;;;61.92;39.03;;;0.40;99.90;;;;;;5094313;28;20476;-76
2022/01/26 03:36:49;;;;;;;62.35;37.90;;;0.40;99.90;;;;;;5094174;28;20036;-79
2022/01/26 03:39:18;;;;;;;63.90;37.85;;;0.40;99.90;;;;;;5094362;28;20059;-75
2022/01/26 03:41:52;;;;;;;55.90;34.05;;;0.30;99.90;;;;;;5094064;28;20035;-78
2022/01/26 03:44:19;;;;;;;49.05;32.30;;;0.30;99.90;;;;;;5093027;28;20028;-76
2022/01/26 03:46:47;;;;;;;52.60;34.30;;;0.30;99.90;;;;;;5076719;28;20040;-78
2022/01/26 03:49:13;;;;;;;52.17;34.47;;;0.30;99.90;;;;;;5094165;28;20079;-75
2022/01/26 03:51:41;;;;;;;53.58;33.58;;;0.20;99.90;;;;;;5094401;28;20380;-75
2022/01/26 03:54:08;;;;;;;55.65;35.58;;;0.20;99.90;;;;;;5093228;28;20027;-75
2022/01/26 03:56:35;;;;;;;59.88;34.70;;;0.20;99.90;;;;;;5093778;28;20040;-75
2022/01/26 03:59:01;;;;;;;53.08;35.03;;;0.20;99.90;;;;;;5093141;28;20028;-75
2022/01/26 04:01:28;;;;;;;58.85;35.42;;;0.30;99.90;;;;;;5075322;28;20043;-75
2022/01/26 04:03:54;;;;;;;54.35;35.42;;;0.20;99.90;;;;;;5074551;28;20489;-75
2022/01/26 04:06:20;;;;;;;59.65;36.20;;;0.30;99.90;;;;;;5059400;28;20048;-75
2022/01/26 04:08:47;;;;;;;50.88;34.47;;;0.30;99.90;;;;;;5075380;28;20044;-78
2022/01/26 04:13:40;;;;;;;44.70;30.17;;;0.30;99.90;;;;;;5093791;28;20461;-75
2022/01/26 04:16:07;;;;;;;49.25;33.28;;;0.20;99.90;;;;;;5074845;28;20042;-75
2022/01/26 04:18:37;;;;;;;50.63;31.83;;;0.20;99.90;;;;;;5093838;28;20043;-75
2022/01/26 04:24:02;;;;;;;44.00;30.65;;;0.30;99.90;;;;;;5093432;28;20036;-78
2022/01/26 04:26:43;;;;;;;46.80;34.15;;;0.40;99.90;;;;;;5093351;28;20032;-75
2022/01/26 04:29:15;;;;;;;55.05;32.08;;;0.30;99.90;;;;;;5074931;28;20032;-75
2022/01/26 04:31:41;;;;;;;57.05;30.38;;;0.30;99.90;;;;;;5093803;28;20461;-75
2022/01/26 04:34:08;;;;;;;61.60;32.33;;;0.30;99.90;;;;;;5092220;28;20254;-75
2022/01/26 04:36:41;;;;;;;53.90;30.13;;;0.30;99.90;;;;;;5092993;28;20032;-75
2022/01/26 04:39:12;;;;;;;49.58;32.72;;;0.30;99.90;;;;;;5092814;28;20040;-75
2022/01/26 04:41:48;;;;;;;55.25;31.73;;;0.30;99.90;;;;;;5075102;28;20036;-75
2022/01/26 04:44:25;;;;;;;49.17;30.73;;;0.30;99.90;;;;;;5057569;28;20050;-75
2022/01/26 04:46:52;;;;;;;46.97;29.50;;;0.40;99.90;;;;;;5092728;28;20040;-78
2022/01/26 04:49:19;;;;;;;54.85;31.27;;;0.40;99.90;;;;;;5093058;28;20051;-75
2022/01/26 04:51:45;;;;;;;47.60;30.50;;;0.40;99.90;;;;;;5092667;28;20464;-75
2022/01/26 04:54:12;;;;;;;52.38;32.17;;;0.40;99.90;;;;;;5092123;28;20483;-74
2022/01/26 04:56:38;;;;;;;48.10;31.70;;;0.40;99.90;;;;;;5092897;28;20069;-74
2022/01/26 04:59:05;;;;;;;59.60;34.25;;;0.30;99.90;;;;;;5091971;28;20381;-74
2022/01/26 05:01:31;;;;;;;53.60;30.02;;;0.30;99.90;;;;;;5092637;28;20032;-75
2022/01/26 05:03:58;;;;;;;51.50;31.10;;;0.30;99.90;;;;;;5073753;28;20127;-75
2022/01/26 05:06:24;;;;;;;40.25;30.10;;;0.40;99.90;;;;;;5092545;28;20526;-75
2022/01/26 05:08:51;;;;;;;56.65;31.48;;;0.40;99.90;;;;;;5073660;28;20475;-78
2022/01/26 05:11:30;;;;;;;54.92;34.13;;;0.40;99.90;;;;;;5093413;28;20028;-84
2022/01/26 05:13:57;;;;;;;45.08;30.77;;;0.40;99.90;;;;;;5092232;28;20051;-86
2022/01/26 05:16:24;;;;;;;47.47;31.30;;;0.40;99.90;;;;;;5092663;28;20036;-86
2022/01/26 05:18:50;;;;;;;41.17;29.52;;;0.40;99.90;;;;;;5073013;28;20036;-84
2022/01/26 05:21:17;;;;;;;45.67;31.27;;;0.40;99.90;;;;;;5092149;28;20032;-86
2022/01/26 05:23:43;;;;;;;45.08;31.05;;;0.40;99.90;;;;;;5092774;28;20039;-87
2022/01/26 05:26:09;;;;;;;44.92;30.52;;;0.40;99.90;;;;;;5091935;28;20028;-87
2022/01/26 05:28:35;;;;;;;47.85;31.45;;;0.40;99.90;;;;;;5076613;28;20039;-87
2022/01/26 05:31:01;;;;;;;43.45;29.95;;;0.40;99.90;;;;;;5092504;28;20075;-87
2022/01/26 05:33:27;;;;;;;42.00;28.92;;;0.40;99.90;;;;;;5074978;28;20040;-87
2022/01/26 05:35:54;;;;;;;43.38;28.85;;;0.40;99.90;;;;;;5094769;28;20032;-84
2022/01/26 05:38:20;;;;;;;37.58;27.15;;;0.40;99.90;;;;;;5093009;28;20460;-87
2022/01/26 05:40:46;;;;;;;40.40;27.27;;;0.40;99.90;;;;;;5092223;28;20035;-87
2022/01/26 05:43:15;;;;;;;35.10;25.17;;;0.30;99.90;;;;;;5091999;28;20115;-87
2022/01/26 05:45:43;;;;;;;32.78;25.38;;;0.40;99.90;;;;;;5093205;28;20043;-88
2022/01/26 05:48:12;;;;;;;32.40;25.08;;;0.40;99.90;;;;;;5093012;28;20040;-88
2022/01/26 05:50:45;;;;;;;33.95;26.35;;;0.40;99.90;;;;;;5097130;28;20032;-88
2022/01/26 05:53:11;;;;;;;37.35;28.20;;;0.40;99.90;;;;;;5092881;28;20373;-88
2022/01/26 05:55:38;;;;;;;40.92;26.98;;;0.40;99.90;;;;;;5092949;28;20374;-87
2022/01/26 05:58:04;;;;;;;34.35;27.52;;;0.40;99.90;;;;;;5095497;28;20048;-86
2022/01/26 06:00:30;;;;;;;37.60;27.45;;;0.40;99.90;;;;;;5074669;28;20484;-86
2022/01/26 06:02:56;;;;;;;35.92;26.98;;;0.40;99.90;;;;;;5091969;28;20032;-86
2022/01/26 06:05:23;;;;;;;41.53;25.55;;;0.40;99.90;;;;;;5092538;28;20035;-87
2022/01/26 06:07:49;;;;;;;36.40;26.40;;;0.40;99.90;;;;;;5093557;28;20354;-87
2022/01/26 06:10:15;;;;;;;32.38;25.27;;;0.40;99.90;;;;;;5058138;28;20213;-87
2022/01/26 06:12:41;;;;;;;34.08;24.98;;;0.40;99.90;;;;;;5074821;28;20055;-87
2022/01/26 06:15:08;;;;;;;32.00;25.13;;;0.40;99.90;;;;;;5092803;28;20031;-87
2022/01/26 06:17:34;;;;;;;40.88;29.15;;;0.40;99.90;;;;;;5093472;28;20059;-87
2022/01/26 06:20:01;;;;;;;44.28;28.10;;;0.40;99.90;;;;;;5075343;28;20504;-87
2022/01/26 06:22:29;;;;;;;37.88;26.98;;;0.30;99.90;;;;;;5094230;28;20036;-87
2022/01/26 06:24:57;;;;;;;39.25;26.90;;;0.40;99.90;;;;;;5098509;28;20039;-86
2022/01/26 06:27:23;;;;;;;39.03;26.95;;;0.40;99.90;;;;;;5089607;28;20059;-87
2022/01/26 06:29:50;;;;;;;35.78;26.55;;;0.40;99.90;;;;;;5105890;28;20031;-87
2022/01/26 06:32:17;;;;;;;36.88;27.05;;;0.40;99.90;;;;;;5098925;28;20274;-87
2022/01/26 06:34:43;;;;;;;36.83;25.48;;;0.30;99.90;;;;;;5101029;28;20008;-86
2022/01/26 06:37:10;;;;;;;35.17;25.63;;;0.40;99.90;;;;;;5116423;28;20039;-88
2022/01/26 06:39:36;;;;;;;32.60;24.60;;;0.30;99.90;;;;;;5095149;28;20032;-87
2022/01/26 06:42:11;;;;;;;34.25;25.02;;;0.30;99.90;;;;;;5078986;28;20040;-86
2022/01/26 06:44:47;;;;;;;29.42;22.92;;;0.30;99.90;;;;;;5084328;28;20028;-88
2022/01/26 06:49:39;;;;;;;28.35;22.60;;;0.30;99.90;;;;;;5097246;28;20043;-87
2022/01/26 06:52:06;;;;;;;33.80;24.33;;;0.30;99.90;;;;;;5095992;28;20036;-88
2022/01/26 06:54:32;;;;;;;26.85;20.58;;;0.30;99.90;;;;;;5095768;28;20445;-87
2022/01/26 06:56:58;;;;;;;27.90;22.42;;;0.30;99.90;;;;;;5076659;28;20054;-85
2022/01/26 06:59:24;;;;;;;27.70;20.23;;;0.30;99.90;;;;;;5103888;28;20032;-85
2022/01/26 07:01:51;;;;;;;29.42;20.48;;;0.30;99.90;;;;;;5098925;28;20035;-84
2022/01/26 07:04:17;;;;;;;27.02;19.85;;;0.30;99.90;;;;;;5095471;28;20106;-84
2022/01/26 07:06:44;;;;;;;24.17;19.35;;;0.30;99.90;;;;;;5095736;28;20036;-86
2022/01/26 07:09:10;;;;;;;24.85;18.80;;;0.30;99.90;;;;;;5077064;28;20043;-86
2022/01/26 07:11:36;;;;;;;23.35;18.95;;;0.30;99.90;;;;;;5095611;28;20028;-86
2022/01/26 07:14:07;;;;;;;28.00;19.55;;;0.30;99.90;;;;;;5094938;28;20020;-87
2022/01/26 07:22:03;;;;;;;23.30;16.70;;;0.30;99.90;;;;;;5093912;28;20039;-83
2022/01/26 07:24:29;;;;;;;20.92;16.20;;;0.30;99.90;;;;;;5094834;28;20028;-82
2022/01/26 07:26:57;;;;;;;19.45;15.73;;;0.30;99.90;;;;;;5095529;28;20481;-82
2022/01/26 07:29:24;;;;;;;20.30;17.75;;;0.30;99.90;;;;;;5077799;28;20036;-82
2022/01/26 07:31:51;;;;;;;22.00;17.77;;;0.30;99.90;;;;;;5095369;28;20047;-83
2022/01/26 07:34:20;;;;;;;18.52;15.32;;;0.30;99.90;;;;;;5076693;28;20416;-82
2022/01/26 07:36:49;;;;;;;17.05;15.15;;;0.30;99.90;;;;;;5094868;28;20040;-82
2022/01/26 07:39:18;;;;;;;17.55;15.73;;;0.30;99.90;;;;;;5075916;28;20040;-82
2022/01/26 07:41:44;;;;;;;21.92;15.23;;;0.40;99.90;;;;;;5095076;28;20036;-82
2022/01/26 07:44:11;;;;;;;18.25;14.73;;;0.40;99.90;;;;;;5076642;28;20043;-83
2022/01/26 07:46:37;;;;;;;16.95;13.32;;;0.30;99.90;;;;;;5095972;28;20028;-82
2022/01/26 07:49:03;;;;;;;19.98;15.63;;;0.30;99.90;;;;;;5076696;28;20037;-82
2022/01/26 07:51:30;;;;;;;13.02;11.35;;;0.30;99.90;;;;;;5098237;28;20032;-82
2022/01/26 07:53:56;;;;;;;17.20;13.43;;;0.20;99.90;;;;;;5096157;28;20040;-83
2022/01/26 07:56:23;;;;;;;16.23;11.45;;;0.30;99.90;;;;;;5076631;28;20055;-83
2022/01/26 07:58:49;;;;;;;15.55;13.00;;;0.20;99.90;;;;;;5077296;28;20373;-82
2022/01/26 08:01:15;;;;;;;16.58;13.02;;;0.30;99.90;;;;;;5095548;28;20032;-81
2022/01/26 08:03:41;;;;;;;13.52;12.13;;;0.30;99.90;;;;;;5096481;28;20036;-82
2022/01/26 08:06:14;;;;;;;14.57;11.23;;;0.30;99.90;;;;;;5096102;28;20043;-81
2022/01/26 08:08:40;;;;;;;14.65;10.27;;;0.30;99.90;;;;;;5095515;28;20047;-82
2022/01/26 08:11:06;;;;;;;11.82;10.15;;;0.30;99.90;;;;;;5094559;28;20042;-82
2022/01/26 08:13:32;;;;;;;11.45;10.05;;;0.20;99.90;;;;;;5094809;28;20032;-80
2022/01/26 08:15:59;;;;;;;12.32;10.63;;;0.30;99.90;;;;;;5077389;28;20055;-81
2022/01/26 08:18:25;;;;;;;13.05;9.57;;;0.30;99.90;;;;;;5092654;28;20063;-81
2022/01/26 08:20:52;;;;;;;14.73;11.73;;;0.40;99.90;;;;;;5095448;28;20370;-82
2022/01/26 08:23:20;;;;;;;13.50;11.05;;;0.40;99.90;;;;;;5059105;28;20047;-80
2022/01/26 08:25:50;;;;;;;12.50;10.80;;;0.30;99.90;;;;;;5095034;28;20036;-80
2022/01/26 08:28:28;;;;;;;11.38;9.45;;;0.40;99.90;;;;;;5093692;28;20040;-82
2022/01/26 08:30:54;;;;;;;11.25;9.70;;;0.40;99.90;;;;;;5081070;28;20035;-81
2022/01/26 08:33:21;;;;;;;11.85;10.60;;;0.40;99.90;;;;;;5078831;28;20043;-80
2022/01/26 08:35:47;;;;;;;11.93;10.70;;;0.40;99.90;;;;;;5075667;28;20441;-81
2022/01/26 08:38:14;;;;;;;12.57;9.60;;;0.50;99.90;;;;;;5093546;28;20473;-81
2022/01/26 08:40:40;;;;;;;12.45;10.80;;;0.50;99.90;;;;;;5076271;28;20039;-81
2022/01/26 08:43:06;;;;;;;13.15;11.00;;;0.40;99.90;;;;;;5093510;28;20043;-81
2022/01/26 08:45:33;;;;;;;12.88;10.52;;;0.50;99.90;;;;;;5095210;28;20373;-81
2022/01/26 08:47:59;;;;;;;21.40;15.15;;;0.50;99.90;;;;;;5074790;28;20044;-81
2022/01/26 08:50:25;;;;;;;15.43;10.10;;;0.50;99.90;;;;;;5093144;28;20543;-81
2022/01/26 08:52:52;;;;;;;10.70;9.23;;;0.60;99.90;;;;;;5092697;28;20023;-81
2022/01/26 08:55:18;;;;;;;9.85;7.80;;;0.60;99.90;;;;;;5075363;28;20028;-81
2022/01/26 08:57:44;;;;;;;12.52;11.23;;;0.60;99.90;;;;;;5093811;28;20473;-81
2022/01/26 09:00:12;;;;;;;13.38;9.73;;;0.60;99.90;;;;;;5075454;28;20046;-82
2022/01/26 09:02:38;;;;;;;9.32;8.10;;;0.70;99.90;;;;;;5094000;28;20051;-82
2022/01/26 09:05:08;;;;;;;12.52;10.05;;;0.70;99.90;;;;;;5074846;28;20047;-83
2022/01/26 09:07:36;;;;;;;12.60;10.82;;;0.70;99.90;;;;;;5094073;28;20044;-84
2022/01/26 09:10:04;;;;;;;11.68;10.45;;;0.80;99.90;;;;;;5075879;28;20040;-82
2022/01/26 09:12:33;;;;;;;11.45;10.25;;;0.70;99.90;;;;;;5075495;28;20040;-82
2022/01/26 09:15:03;;;;;;;11.65;9.82;;;0.70;99.90;;;;;;5093228;28;20032;-82
2022/01/26 09:17:32;;;;;;;11.02;9.90;;;0.70;99.90;;;;;;5093369;28;20043;-82
2022/01/26 09:20:00;;;;;;;12.85;11.55;;;0.70;99.90;;;;;;5093477;28;20039;-81
2022/01/26 09:22:27;;;;;;;16.08;11.98;;;0.50;99.90;;;;;;5092820;28;20473;-82
2022/01/26 09:24:53;;;;;;;19.02;13.40;;;0.40;99.90;;;;;;5075258;28;20040;-81
2022/01/26 09:27:19;;;;;;;13.50;11.90;;;0.30;99.90;;;;;;5074693;28;20040;-81
2022/01/26 09:29:46;;;;;;;22.23;13.15;;;0.30;99.90;;;;;;5092858;28;20028;-81
2022/01/26 09:32:14;;;;;;;22.60;17.63;;;0.40;99.90;;;;;;5092553;28;20032;-81
2022/01/26 09:34:41;;;;;;;20.17;16.38;;;0.40;99.90;;;;;;5075434;28;20039;-82
2022/01/26 09:37:10;;;;;;;25.35;18.15;;;0.50;99.90;;;;;;5098865;28;20028;-82
2022/01/26 09:39:39;;;;;;;31.75;22.20;;;0.50;99.90;;;;;;5094023;28;20043;-81
2022/01/26 09:42:06;;;;;;;23.38;20.40;;;0.40;99.90;;;;;;5058096;28;20036;-81
2022/01/26 09:44:32;;;;;;;20.90;17.58;;;0.40;99.90;;;;;;5092616;28;20031;-82
2022/01/26 09:46:59;;;;;;;19.85;15.40;;;0.40;99.90;;;;;;5092781;28;20028;-82
2022/01/26 09:49:32;;;;;;;20.73;18.50;;;0.30;99.90;;;;;;5092660;28;20396;-81
2022/01/26 09:52:06;;;;;;;25.83;17.15;;;0.30;99.90;;;;;;5074932;28;20409;-82
2022/01/26 09:54:33;;;;;;;20.77;16.33;;;0.40;99.90;;;;;;5074497;28;20050;-81
2022/01/26 09:57:02;;;;;;;25.50;16.35;;;0.40;99.90;;;;;;5092646;28;20496;-82
2022/01/26 09:59:32;;;;;;;18.60;15.60;;;0.40;99.90;;;;;;5092143;28;20039;-82
2022/01/26 10:02:00;;;;;;;24.10;15.27;;;0.40;99.90;;;;;;5074333;28;20043;-81
2022/01/26 10:04:37;;;;;;;20.38;15.43;;;0.40;99.90;;;;;;5076805;28;20211;-82
2022/01/26 10:18:07;;;;;;;18.50;13.70;;;0.30;99.90;;;;;;5080501;28;20413;-81
2022/01/26 10:20:52;;;;;;;19.02;13.00;;;0.30;99.90;;;;;;5099497;28;20051;-81
2022/01/26 10:23:27;;;;;;;17.02;13.93;;;0.40;99.90;;;;;;5098629;28;20382;-81
2022/01/26 10:26:12;;;;;;;19.20;14.40;;;0.30;99.90;;;;;;5099477;28;20039;-80
2022/01/26 10:29:04;;;;;;;18.70;15.38;;;0.40;99.90;;;;;;5084528;28;20477;-80
2022/01/26 10:31:39;;;;;;;;;;;0.40;99.90;;;;;;5081204;28;20032;-80
2022/01/26 10:34:10;;;;;;;17.42;13.93;;;0.40;99.90;;;;;;5099301;28;19919;-81
2022/01/26 10:36:37;;;;;;;15.05;11.90;;;0.40;99.90;;;;;;5064407;28;20048;-81
2022/01/26 10:39:07;;;;;;;16.02;12.50;;;0.40;99.90;;;;;;5064584;28;20036;-82
2022/01/26 10:41:37;;;;;;;20.08;12.25;;;0.40;99.90;;;;;;5098969;28;20035;-82
2022/01/26 10:44:04;;;;;;;17.67;11.95;;;0.30;99.90;;;;;;5081203;28;20389;-82
2022/01/26 10:46:35;;;;;;;16.48;12.38;;;0.30;99.90;;;;;;5098659;28;20040;-82
2022/01/26 10:49:16;;;;;;;16.08;12.60;;;0.30;99.90;;;;;;5087597;28;20047;-81
2022/01/26 10:54:37;;;;;;;22.50;12.38;;;0.40;99.90;;;;;;5100128;28;20028;-81
2022/01/26 10:57:09;;;;;;;19.35;12.15;;;0.40;99.90;;;;;;5099628;28;20055;-81
2022/01/26 10:59:40;;;;;;;16.50;12.20;;;0.40;99.90;;;;;;5099471;28;20457;-81
2022/01/26 11:02:08;;;;;;;21.10;12.50;;;0.40;99.90;;;;;;5080469;28;20035;-81
2022/01/26 11:04:37;;;;;;;16.25;13.30;;;0.40;99.90;;;;;;5098838;28;20106;-81
2022/01/26 11:07:09;;;;;;;20.83;13.10;;;0.40;99.90;;;;;;5098696;28;20024;-81
2022/01/26 11:09:39;;;;;;;14.63;11.25;;;0.40;99.90;;;;;;5098737;28;20036;-83
2022/01/26 11:12:10;;;;;;;18.23;14.13;;;0.40;99.90;;;;;;5098970;28;20058;-81
2022/01/26 11:14:41;;;;;;;21.13;13.82;;;0.50;99.90;;;;;;5098753;28;20028;-83
2022/01/26 11:17:08;;;;;;;15.13;12.27;;;0.50;99.90;;;;;;5095163;28;20032;-81
2022/01/26 11:19:42;;;;;;;18.98;12.98;;;0.40;99.90;;;;;;5099173;28;20031;-80
2022/01/26 11:22:10;;;;;;;20.63;15.52;;;0.40;99.90;;;;;;5095397;28;20031;-80
2022/01/26 11:24:45;;;;;;;22.23;14.85;;;0.50;99.90;;;;;;5095460;28;20357;-82
2022/01/26 11:27:12;;;;;;;21.27;14.52;;;0.50;99.90;;;;;;5076922;28;20036;-81
2022/01/26 11:29:43;;;;;;;19.58;14.70;;;0.50;99.90;;;;;;5095401;28;20028;-81
2022/01/26 11:32:14;;;;;;;15.98;12.98;;;0.50;99.90;;;;;;5076557;28;20043;-81
2022/01/26 11:34:41;;;;;;;19.77;13.90;;;0.60;99.90;;;;;;5077056;28;20036;-81
2022/01/26 11:37:14;;;;;;;20.10;15.10;;;0.60;99.90;;;;;;5077104;28;20362;-81
2022/01/26 11:45:15;;;;;;;17.52;12.10;;;0.80;99.90;;;;;;5076850;28;20040;-80
2022/01/26 11:47:58;;;;;;;15.75;10.13;;;0.90;99.90;;;;;;5095749;28;20032;-81
2022/01/26 11:50:26;;;;;;;14.15;9.50;;;1.10;99.90;;;;;;5095401;28;20028;-81
2022/01/26 11:53:06;;;;;;;13.93;9.05;;;1.10;99.90;;;;;;5095377;28;20036;-81
2022/01/26 11:55:46;;;;;;;14.88;9.25;;;1.10;99.90;;;;;;5094048;28;20038;-80
2022/01/26 11:58:36;;;;;;;11.90;7.65;;;1.00;99.90;;;;;;5073808;28;20044;-81
2022/01/26 12:01:22;;;;;;;13.13;8.50;;;1.10;99.90;;;;;;5075293;28;20033;-80
2022/01/26 12:04:11;;;;;;;13.55;10.55;;;1.00;99.90;;;;;;5074203;28;20107;-80
2022/01/26 12:06:43;;;;;;;18.48;10.95;;;1.00;99.90;;;;;;5073853;28;20373;-80
2022/01/26 12:09:10;;;;;;;14.70;10.45;;;1.00;99.90;;;;;;5074191;28;20041;-80
2022/01/26 12:11:37;;;;;;;13.63;9.68;;;0.90;99.90;;;;;;5076587;28;20425;-79
2022/01/26 12:14:10;;;;;;;10.63;8.43;;;0.80;99.90;;;;;;5075070;28;20028;-80
2022/01/26 12:16:41;;;;;;;10.27;8.75;;;0.80;99.90;;;;;;5073198;28;20040;-80
2022/01/26 12:38:01;;;;;;;13.65;9.60;;;1.00;99.90;;;;;;5073351;28;20043;-80
2022/01/26 12:43:35;;;;;;;21.17;9.52;;;1.00;99.90;;;;;;5073026;28;20033;-80
2022/01/26 12:46:04;;;;;;;17.15;12.15;;;1.00;99.90;;;;;;5073217;28;20043;-83
2022/01/26 12:48:34;;;;;;;13.13;10.25;;;1.00;99.90;;;;;;5071544;28;20074;-81
2022/01/26 12:51:02;;;;;;;12.27;11.07;;;1.00;99.90;;;;;;5072259;28;20389;-81
2022/01/26 12:53:32;;;;;;;11.07;9.82;;;1.00;99.90;;;;;;5072965;28;20032;-81
2022/01/26 12:56:01;;;;;;;13.05;10.30;;;1.00;99.90;;;;;;5072456;28;20492;-80
2022/01/26 12:58:32;;;;;;;13.88;10.27;;;0.90;99.90;;;;;;5092969;28;20039;-81
2022/01/26 13:01:06;;;;;;;14.75;10.73;;;0.90;99.90;;;;;;5093365;28;20028;-80
2022/01/26 13:03:38;;;;;;;15.90;10.57;;;1.00;99.90;;;;;;5078384;28;20040;-80
2022/01/26 13:06:09;;;;;;;15.10;9.32;;;0.90;99.90;;;;;;5093554;28;20032;-81
2022/01/26 13:08:43;;;;;;;16.35;10.07;;;1.00;99.90;;;;;;5093017;28;20063;-82
2022/01/26 13:11:09;;;;;;;14.15;8.82;;;1.00;99.90;;;;;;5093276;28;20035;-81
2022/01/26 13:13:36;;;;;;;13.57;9.82;;;1.00;99.90;;;;;;5093265;28;20034;-82
2022/01/26 13:16:22;;;;;;;10.18;8.75;;;0.90;99.90;;;;;;5093392;28;20039;-81
2022/01/26 13:21:42;;;;;;;12.75;9.70;;;1.00;99.90;;;;;;5093157;28;20040;-81
2022/01/26 13:24:36;;;;;;;15.82;10.02;;;0.90;99.90;;;;;;5059120;28;20047;-81
2022/01/26 13:27:12;;;;;;;9.90;8.95;;;0.90;99.90;;;;;;5060123;28;20036;-82
2022/01/26 13:30:02;;;;;;;18.80;10.57;;;1.00;99.90;;;;;;5077287;28;20055;-81
2022/01/26 13:38:24;;;;;;;12.13;9.15;;;1.00;99.90;;;;;;5011626;28;20142;-81
2022/01/26 13:52:03;;;;;;;13.25;9.23;;;1.10;99.90;;;;;;5010578;28;20041;-82
2022/01/26 14:00:00;;;;;;;13.73;8.98;;;1.20;99.90;;;;;;5010737;28;20050;-81
2022/01/26 14:02:30;;;;;;;13.63;9.43;;;1.20;99.90;;;;;;5009837;28;20034;-82
2022/01/26 14:04:56;;;;;;;13.90;9.32;;;1.20;99.90;;;;;;5010406;28;20042;-81
2022/01/26 14:07:23;;;;;;;11.95;8.13;;;1.20;99.90;;;;;;5084661;28;20040;-82
2022/01/26 14:09:49;;;;;;;16.48;11.27;;;1.20;99.90;;;;;;5092336;28;20055;-81
2022/01/26 14:12:20;;;;;;;18.70;10.93;;;1.20;99.90;;;;;;5074456;28;20044;-82
2022/01/26 14:14:52;;;;;;;12.65;10.15;;;1.20;99.90;;;;;;5092924;28;20032;-82
2022/01/26 14:17:27;;;;;;;18.30;13.70;;;1.30;99.90;;;;;;5074115;28;20054;-81
2022/01/26 14:27:44;;;;;;;13.30;10.70;;;1.30;99.90;;;;;;5076055;28;20044;-82
2022/01/26 14:30:22;;;;;;;9.90;8.98;;;1.30;99.90;;;;;;5074729;28;20051;-81
2022/01/26 14:35:42;;;;;;;16.85;11.85;;;1.30;99.90;;;;;;5092197;28;20043;-81
2022/01/26 15:30:03;;;;;;;15.02;13.00;;;1.40;99.90;;;;;;5096325;28;20043;-80
2022/01/26 15:35:09;;;;;;;28.25;13.40;;;1.40;99.90;;;;;;5097093;28;20028;-81
2022/01/26 15:40:46;;;;;;;29.13;23.85;;;1.40;99.90;;;;;;5096471;28;20032;-81
2022/01/26 15:49:29;;;;;;;37.03;28.33;;;1.40;99.90;;;;;;5076229;28;20043;-82
2022/01/26 15:52:17;;;;;;;31.67;19.70;;;1.40;99.90;;;;;;5075748;28;20481;-81
2022/01/26 16:08:29;;;;;;;35.03;27.13;;;1.40;99.90;;;;;;5074410;28;20035;-81
2022/01/26 16:26:16;;;;;;;17.17;12.45;;;1.50;99.90;;;;;;5073962;28;20033;-80
2022/01/26 17:25:07;;;;;;;26.38;16.30;;;1.60;99.90;;;;;;5092970;28;20519;-73
2022/01/26 17:46:43;;;;;;;23.63;18.35;;;1.50;99.90;;;;;;5073221;28;20025;-73
2022/01/26 18:32:47;;;;;;;25.65;18.80;;;2.10;99.90;;;;;;5076365;28;20171;-77
2022/01/26 18:51:52;;;;;;;30.30;19.60;;;1.90;99.90;;;;;;5075123;28;20039;-77
2022/01/26 18:54:21;;;;;;;24.40;17.75;;;2.00;99.90;;;;;;5061292;28;20392;-77
2022/01/26 18:56:48;;;;;;;25.35;19.50;;;2.00;99.90;;;;;;5094749;28;20040;-76
2022/01/26 18:59:17;;;;;;;30.30;21.95;;;2.00;99.90;;;;;;5094592;28;20051;-77
2022/01/26 19:01:45;;;;;;;25.25;20.33;;;2.10;99.90;;;;;;5095198;28;20036;-76
2022/01/26 19:04:11;;;;;;;27.63;20.52;;;2.10;99.90;;;;;;5095157;28;20028;-76
2022/01/26 19:06:40;;;;;;;23.77;19.15;;;2.00;99.90;;;;;;5096275;28;20032;-75
2022/01/26 19:09:07;;;;;;;22.70;19.40;;;1.90;99.90;;;;;;5085912;28;20051;-75
2022/01/26 19:11:33;;;;;;;26.63;19.80;;;1.80;99.90;;;;;;5086004;28;20358;-75
2022/01/26 19:14:01;;;;;;;27.67;19.60;;;1.80;99.90;;;;;;5094753;28;20720;-76
2022/01/26 19:16:41;;;;;;;28.20;20.33;;;1.90;99.90;;;;;;5095155;28;20032;-75
2022/01/26 19:19:29;;;;;;;28.40;17.52;;;1.90;99.90;;;;;;5095213;28;20036;-75
2022/01/26 19:22:08;;;;;;;21.17;18.55;;;1.90;99.90;;;;;;5094774;28;20032;-76
2022/01/26 19:24:50;;;;;;;31.27;23.20;;;2.00;99.90;;;;;;5095632;28;20419;-75
2022/01/26 19:27:23;;;;;;;30.30;22.98;;;2.00;99.90;;;;;;5095162;28;20039;-75